sensor_id;sensor_type;location;lat;lon;timestamp;P1;durP1;ratioP1;P2;durP2;ratioP2
24090;SDS011;12272;52.426;17.100;2023-01-01T00:02:14;6.40;;;4.70;;
24090;SDS011;12272;52.426;17.100;2023-01-01T00:07:16;7.57;;;5.43;;
24090;SDS011;12272;52.426;17.100;2023-01-01T00:12:19;7.17;;;4.40;;
24090;SDS011;12272;52.426;17.100;2023-01-01T00:17:22;5.87;;;4.20;;
24090;SDS011;12272;52.426;17.100;2023-01-01T00:22:24;6.63;;;5.40;;
24090;SDS011;12272;52.426;17.100;2023-01-01T00:27:47;5.33;;;4.30;;
24090;SDS011;12272;52.426;17.100;2023-01-01T00:32:49;7.83;;;5.13;;
24090;SDS011;12272;52.426;17.100;2023-01-01T00:37:57;7.80;;;5.53;;
24090;SDS011;12272;52.426;17.100;2023-01-01T00:42:59;8.17;;;6.27;;
24090;SDS011;12272;52.426;17.100;2023-01-01T00:48:02;6.83;;;4.20;;
24090;SDS011;12272;52.426;17.100;2023-01-01T00:53:04;7.60;;;4.53;;
24090;SDS011;12272;52.426;17.100;2023-01-01T00:58:07;8.27;;;3.73;;
24090;SDS011;12272;52.426;17.100;2023-01-01T01:03:13;6.50;;;3.87;;
24090;SDS011;12272;52.426;17.100;2023-01-01T01:08:30;4.57;;;3.23;;
24090;SDS011;12272;52.426;17.100;2023-01-01T01:13:32;4.27;;;3.37;;
24090;SDS011;12272;52.426;17.100;2023-01-01T01:18:35;3.37;;;2.50;;
24090;SDS011;12272;52.426;17.100;2023-01-01T01:23:38;4.30;;;3.60;;
24090;SDS011;12272;52.426;17.100;2023-01-01T01:28:40;8.07;;;3.33;;
24090;SDS011;12272;52.426;17.100;2023-01-01T01:33:50;4.70;;;3.00;;
24090;SDS011;12272;52.426;17.100;2023-01-01T01:38:53;3.50;;;2.57;;
24090;SDS011;12272;52.426;17.100;2023-01-01T01:44:00;4.43;;;3.23;;
24090;SDS011;12272;52.426;17.100;2023-01-01T01:49:26;3.63;;;2.97;;
24090;SDS011;12272;52.426;17.100;2023-01-01T01:54:30;5.50;;;2.93;;
24090;SDS011;12272;52.426;17.100;2023-01-01T01:59:33;4.87;;;2.73;;
24090;SDS011;12272;52.426;17.100;2023-01-01T02:04:39;4.33;;;3.63;;
24090;SDS011;12272;52.426;17.100;2023-01-01T02:09:42;6.03;;;3.80;;
24090;SDS011;12272;52.426;17.100;2023-01-01T02:14:45;3.30;;;2.30;;
24090;SDS011;12272;52.426;17.100;2023-01-01T02:30:08;6.27;;;3.33;;
24090;SDS011;12272;52.426;17.100;2023-01-01T02:40:40;6.27;;;3.23;;
24090;SDS011;12272;52.426;17.100;2023-01-01T02:45:47;3.13;;;2.63;;
24090;SDS011;12272;52.426;17.100;2023-01-01T02:50:51;5.77;;;2.70;;
24090;SDS011;12272;52.426;17.100;2023-01-01T02:56:06;5.03;;;2.87;;
24090;SDS011;12272;52.426;17.100;2023-01-01T03:01:28;3.07;;;2.53;;
24090;SDS011;12272;52.426;17.100;2023-01-01T03:11:58;3.87;;;2.87;;
24090;SDS011;12272;52.426;17.100;2023-01-01T03:22:57;3.10;;;2.60;;
24090;SDS011;12272;52.426;17.100;2023-01-01T03:28:08;3.13;;;2.80;;
24090;SDS011;12272;52.426;17.100;2023-01-01T03:33:39;3.43;;;2.67;;
24090;SDS011;12272;52.426;17.100;2023-01-01T03:38:54;3.03;;;2.37;;
24090;SDS011;12272;52.426;17.100;2023-01-01T03:44:04;3.77;;;3.37;;
24090;SDS011;12272;52.426;17.100;2023-01-01T03:49:12;3.77;;;3.20;;
24090;SDS011;12272;52.426;17.100;2023-01-01T03:59:41;3.50;;;2.67;;
24090;SDS011;12272;52.426;17.100;2023-01-01T04:04:50;3.20;;;2.50;;
24090;SDS011;12272;52.426;17.100;2023-01-01T04:09:53;4.33;;;2.67;;
24090;SDS011;12272;52.426;17.100;2023-01-01T04:14:58;8.57;;;3.50;;
24090;SDS011;12272;52.426;17.100;2023-01-01T04:20:01;6.33;;;3.47;;
24090;SDS011;12272;52.426;17.100;2023-01-01T04:25:05;4.37;;;2.73;;
24090;SDS011;12272;52.426;17.100;2023-01-01T04:30:09;6.80;;;3.47;;
24090;SDS011;12272;52.426;17.100;2023-01-01T04:35:13;9.63;;;5.00;;
24090;SDS011;12272;52.426;17.100;2023-01-01T04:40:16;5.67;;;3.03;;
24090;SDS011;12272;52.426;17.100;2023-01-01T04:45:19;7.13;;;4.00;;
24090;SDS011;12272;52.426;17.100;2023-01-01T04:50:21;7.63;;;4.20;;
24090;SDS011;12272;52.426;17.100;2023-01-01T04:55:24;12.87;;;5.43;;
24090;SDS011;12272;52.426;17.100;2023-01-01T05:00:26;8.53;;;5.27;;
24090;SDS011;12272;52.426;17.100;2023-01-01T05:05:29;5.77;;;4.47;;
24090;SDS011;12272;52.426;17.100;2023-01-01T05:10:31;7.97;;;5.63;;
24090;SDS011;12272;52.426;17.100;2023-01-01T05:15:34;10.43;;;4.73;;
24090;SDS011;12272;52.426;17.100;2023-01-01T05:20:38;5.57;;;3.87;;
24090;SDS011;12272;52.426;17.100;2023-01-01T05:25:40;4.97;;;3.23;;
24090;SDS011;12272;52.426;17.100;2023-01-01T05:30:44;3.93;;;3.37;;
24090;SDS011;12272;52.426;17.100;2023-01-01T05:35:51;6.27;;;4.63;;
24090;SDS011;12272;52.426;17.100;2023-01-01T05:40:55;4.50;;;3.00;;
24090;SDS011;12272;52.426;17.100;2023-01-01T05:45:59;4.70;;;2.80;;
24090;SDS011;12272;52.426;17.100;2023-01-01T05:51:07;4.23;;;2.23;;
24090;SDS011;12272;52.426;17.100;2023-01-01T05:56:14;5.00;;;3.47;;
24090;SDS011;12272;52.426;17.100;2023-01-01T06:01:19;6.23;;;3.33;;
24090;SDS011;12272;52.426;17.100;2023-01-01T06:06:23;3.03;;;2.40;;
24090;SDS011;12272;52.426;17.100;2023-01-01T06:11:28;7.03;;;2.83;;
24090;SDS011;12272;52.426;17.100;2023-01-01T06:16:31;3.90;;;2.60;;
24090;SDS011;12272;52.426;17.100;2023-01-01T06:21:34;4.00;;;2.83;;
24090;SDS011;12272;52.426;17.100;2023-01-01T06:26:36;4.80;;;2.53;;
24090;SDS011;12272;52.426;17.100;2023-01-01T06:31:39;3.60;;;3.00;;
24090;SDS011;12272;52.426;17.100;2023-01-01T06:36:42;3.50;;;2.60;;
24090;SDS011;12272;52.426;17.100;2023-01-01T06:41:44;6.63;;;3.17;;
24090;SDS011;12272;52.426;17.100;2023-01-01T06:46:47;6.17;;;2.57;;
24090;SDS011;12272;52.426;17.100;2023-01-01T06:51:49;5.03;;;3.00;;
24090;SDS011;12272;52.426;17.100;2023-01-01T06:56:52;4.10;;;2.87;;
24090;SDS011;12272;52.426;17.100;2023-01-01T07:01:54;3.63;;;3.00;;
24090;SDS011;12272;52.426;17.100;2023-01-01T07:06:57;4.40;;;2.80;;
24090;SDS011;12272;52.426;17.100;2023-01-01T07:12:02;12.57;;;3.20;;
24090;SDS011;12272;52.426;17.100;2023-01-01T07:17:04;6.17;;;2.80;;
24090;SDS011;12272;52.426;17.100;2023-01-01T07:22:07;6.37;;;3.37;;
24090;SDS011;12272;52.426;17.100;2023-01-01T07:27:11;5.17;;;3.57;;
24090;SDS011;12272;52.426;17.100;2023-01-01T07:32:14;4.13;;;3.07;;
24090;SDS011;12272;52.426;17.100;2023-01-01T07:37:16;2.73;;;2.43;;
24090;SDS011;12272;52.426;17.100;2023-01-01T07:42:19;4.87;;;2.80;;
24090;SDS011;12272;52.426;17.100;2023-01-01T07:47:22;4.33;;;3.20;;
24090;SDS011;12272;52.426;17.100;2023-01-01T07:52:26;4.93;;;3.00;;
24090;SDS011;12272;52.426;17.100;2023-01-01T07:57:28;4.80;;;2.60;;
24090;SDS011;12272;52.426;17.100;2023-01-01T08:02:31;5.47;;;3.47;;
24090;SDS011;12272;52.426;17.100;2023-01-01T08:07:33;9.17;;;3.27;;
24090;SDS011;12272;52.426;17.100;2023-01-01T08:12:36;8.93;;;3.70;;
24090;SDS011;12272;52.426;17.100;2023-01-01T08:17:38;4.80;;;2.87;;
24090;SDS011;12272;52.426;17.100;2023-01-01T08:22:47;6.73;;;2.90;;
24090;SDS011;12272;52.426;17.100;2023-01-01T08:27:50;7.53;;;3.23;;
24090;SDS011;12272;52.426;17.100;2023-01-01T08:32:52;6.00;;;3.53;;
24090;SDS011;12272;52.426;17.100;2023-01-01T08:37:55;4.00;;;2.40;;
24090;SDS011;12272;52.426;17.100;2023-01-01T08:42:57;7.30;;;3.50;;
24090;SDS011;12272;52.426;17.100;2023-01-01T08:48:00;6.00;;;2.90;;
24090;SDS011;12272;52.426;17.100;2023-01-01T08:53:02;5.17;;;3.20;;
24090;SDS011;12272;52.426;17.100;2023-01-01T08:58:05;5.07;;;3.37;;
24090;SDS011;12272;52.426;17.100;2023-01-01T09:03:08;1.57;;;1.47;;
24090;SDS011;12272;52.426;17.100;2023-01-01T09:08:12;4.50;;;2.57;;
24090;SDS011;12272;52.426;17.100;2023-01-01T09:13:19;5.27;;;1.90;;
24090;SDS011;12272;52.426;17.100;2023-01-01T09:18:22;4.33;;;2.03;;
24090;SDS011;12272;52.426;17.100;2023-01-01T09:23:25;1.80;;;1.20;;
24090;SDS011;12272;52.426;17.100;2023-01-01T09:28:27;6.60;;;2.60;;
24090;SDS011;12272;52.426;17.100;2023-01-01T09:33:33;4.37;;;1.87;;
24090;SDS011;12272;52.426;17.100;2023-01-01T09:38:36;4.77;;;2.60;;
24090;SDS011;12272;52.426;17.100;2023-01-01T09:48:56;6.03;;;2.63;;
24090;SDS011;12272;52.426;17.100;2023-01-01T09:59:16;4.30;;;1.90;;
24090;SDS011;12272;52.426;17.100;2023-01-01T10:09:49;1.83;;;1.03;;
24090;SDS011;12272;52.426;17.100;2023-01-01T10:15:06;4.27;;;2.90;;
24090;SDS011;12272;52.426;17.100;2023-01-01T10:25:23;8.93;;;2.63;;
24090;SDS011;12272;52.426;17.100;2023-01-01T10:30:28;3.27;;;1.70;;
24090;SDS011;12272;52.426;17.100;2023-01-01T10:35:36;3.37;;;1.80;;
24090;SDS011;12272;52.426;17.100;2023-01-01T10:40:46;8.93;;;2.63;;
24090;SDS011;12272;52.426;17.100;2023-01-01T10:45:49;4.53;;;2.43;;
24090;SDS011;12272;52.426;17.100;2023-01-01T10:55:59;5.13;;;2.20;;
24090;SDS011;12272;52.426;17.100;2023-01-01T11:06:32;6.57;;;2.90;;
24090;SDS011;12272;52.426;17.100;2023-01-01T11:11:42;7.50;;;2.80;;
24090;SDS011;12272;52.426;17.100;2023-01-01T11:16:47;6.23;;;2.17;;
24090;SDS011;12272;52.426;17.100;2023-01-01T11:21:50;3.70;;;2.43;;
24090;SDS011;12272;52.426;17.100;2023-01-01T11:26:55;8.93;;;3.13;;
24090;SDS011;12272;52.426;17.100;2023-01-01T11:32:19;8.57;;;3.17;;
24090;SDS011;12272;52.426;17.100;2023-01-01T11:37:28;3.93;;;3.40;;
24090;SDS011;12272;52.426;17.100;2023-01-01T11:42:42;2.53;;;2.33;;
24090;SDS011;12272;52.426;17.100;2023-01-01T11:48:03;4.27;;;2.60;;
24090;SDS011;12272;52.426;17.100;2023-01-01T12:08:44;4.87;;;2.20;;
24090;SDS011;12272;52.426;17.100;2023-01-01T12:13:54;4.93;;;2.87;;
24090;SDS011;12272;52.426;17.100;2023-01-01T12:19:01;3.83;;;2.67;;
24090;SDS011;12272;52.426;17.100;2023-01-01T12:24:11;2.73;;;2.37;;
24090;SDS011;12272;52.426;17.100;2023-01-01T12:29:18;3.47;;;2.43;;
24090;SDS011;12272;52.426;17.100;2023-01-01T12:34:46;4.20;;;3.20;;
24090;SDS011;12272;52.426;17.100;2023-01-01T13:01:32;8.27;;;3.80;;
24090;SDS011;12272;52.426;17.100;2023-01-01T13:06:38;6.60;;;3.40;;
24090;SDS011;12272;52.426;17.100;2023-01-01T13:11:49;6.03;;;3.90;;
24090;SDS011;12272;52.426;17.100;2023-01-01T13:17:14;7.07;;;4.57;;
24090;SDS011;12272;52.426;17.100;2023-01-01T13:28:03;7.33;;;4.30;;
24090;SDS011;12272;52.426;17.100;2023-01-01T13:43:49;8.30;;;3.37;;
24090;SDS011;12272;52.426;17.100;2023-01-01T13:49:10;8.80;;;3.37;;
24090;SDS011;12272;52.426;17.100;2023-01-01T14:05:04;6.13;;;3.17;;
24090;SDS011;12272;52.426;17.100;2023-01-01T14:10:21;8.80;;;3.43;;
24090;SDS011;12272;52.426;17.100;2023-01-01T14:15:54;12.37;;;3.50;;
24090;SDS011;12272;52.426;17.100;2023-01-01T14:20:59;5.90;;;3.43;;
24090;SDS011;12272;52.426;17.100;2023-01-01T14:26:05;5.90;;;2.90;;
24090;SDS011;12272;52.426;17.100;2023-01-01T14:31:13;5.30;;;3.03;;
24090;SDS011;12272;52.426;17.100;2023-01-01T14:36:25;7.00;;;3.17;;
24090;SDS011;12272;52.426;17.100;2023-01-01T14:41:33;11.50;;;3.97;;
24090;SDS011;12272;52.426;17.100;2023-01-01T14:46:43;7.10;;;3.80;;
24090;SDS011;12272;52.426;17.100;2023-01-01T14:52:21;6.77;;;3.50;;
24090;SDS011;12272;52.426;17.100;2023-01-01T14:57:26;5.47;;;3.07;;
24090;SDS011;12272;52.426;17.100;2023-01-01T15:02:36;5.73;;;4.43;;
24090;SDS011;12272;52.426;17.100;2023-01-01T15:07:40;7.50;;;3.63;;
24090;SDS011;12272;52.426;17.100;2023-01-01T15:12:42;5.47;;;3.77;;
24090;SDS011;12272;52.426;17.100;2023-01-01T15:17:45;7.43;;;3.43;;
24090;SDS011;12272;52.426;17.100;2023-01-01T15:22:48;6.67;;;4.57;;
24090;SDS011;12272;52.426;17.100;2023-01-01T15:27:53;6.17;;;3.20;;
24090;SDS011;12272;52.426;17.100;2023-01-01T15:33:04;5.37;;;3.30;;
24090;SDS011;12272;52.426;17.100;2023-01-01T15:38:17;5.70;;;3.50;;
24090;SDS011;12272;52.426;17.100;2023-01-01T15:43:27;8.03;;;4.37;;
24090;SDS011;12272;52.426;17.100;2023-01-01T15:48:34;6.73;;;4.67;;
24090;SDS011;12272;52.426;17.100;2023-01-01T15:53:44;11.63;;;4.60;;
24090;SDS011;12272;52.426;17.100;2023-01-01T16:04:07;23.77;;;8.43;;
24090;SDS011;12272;52.426;17.100;2023-01-01T16:09:12;17.63;;;10.10;;
24090;SDS011;12272;52.426;17.100;2023-01-01T16:14:15;20.73;;;10.50;;
24090;SDS011;12272;52.426;17.100;2023-01-01T16:19:17;15.27;;;10.00;;
24090;SDS011;12272;52.426;17.100;2023-01-01T16:24:23;22.23;;;11.63;;
24090;SDS011;12272;52.426;17.100;2023-01-01T16:29:26;13.10;;;7.90;;
24090;SDS011;12272;52.426;17.100;2023-01-01T16:34:29;28.80;;;10.97;;
24090;SDS011;12272;52.426;17.100;2023-01-01T16:39:36;15.07;;;8.77;;
24090;SDS011;12272;52.426;17.100;2023-01-01T16:44:42;11.87;;;5.87;;
24090;SDS011;12272;52.426;17.100;2023-01-01T16:49:44;28.57;;;15.50;;
24090;SDS011;12272;52.426;17.100;2023-01-01T16:54:47;26.03;;;13.07;;
24090;SDS011;12272;52.426;17.100;2023-01-01T16:59:49;17.57;;;8.43;;
24090;SDS011;12272;52.426;17.100;2023-01-01T17:04:52;29.00;;;14.47;;
24090;SDS011;12272;52.426;17.100;2023-01-01T17:09:55;24.53;;;14.57;;
24090;SDS011;12272;52.426;17.100;2023-01-01T17:14:57;28.53;;;15.93;;
24090;SDS011;12272;52.426;17.100;2023-01-01T17:20:00;33.47;;;15.30;;
24090;SDS011;12272;52.426;17.100;2023-01-01T17:25:03;30.23;;;14.37;;
24090;SDS011;12272;52.426;17.100;2023-01-01T17:30:06;27.97;;;16.77;;
24090;SDS011;12272;52.426;17.100;2023-01-01T17:35:09;30.07;;;17.63;;
24090;SDS011;12272;52.426;17.100;2023-01-01T17:40:11;32.33;;;16.63;;
24090;SDS011;12272;52.426;17.100;2023-01-01T17:45:15;27.37;;;14.57;;
24090;SDS011;12272;52.426;17.100;2023-01-01T17:50:17;26.50;;;13.30;;
24090;SDS011;12272;52.426;17.100;2023-01-01T17:55:20;25.70;;;13.73;;
24090;SDS011;12272;52.426;17.100;2023-01-01T18:00:23;28.87;;;14.87;;
24090;SDS011;12272;52.426;17.100;2023-01-01T18:05:26;32.47;;;14.80;;
24090;SDS011;12272;52.426;17.100;2023-01-01T18:10:28;30.50;;;16.77;;
24090;SDS011;12272;52.426;17.100;2023-01-01T18:15:34;31.93;;;16.73;;
24090;SDS011;12272;52.426;17.100;2023-01-01T18:20:39;36.00;;;17.97;;
24090;SDS011;12272;52.426;17.100;2023-01-01T18:25:42;39.33;;;21.03;;
24090;SDS011;12272;52.426;17.100;2023-01-01T18:30:44;41.50;;;19.20;;
24090;SDS011;12272;52.426;17.100;2023-01-01T18:35:47;30.00;;;17.63;;
24090;SDS011;12272;52.426;17.100;2023-01-01T18:40:59;41.53;;;20.70;;
24090;SDS011;12272;52.426;17.100;2023-01-01T18:46:21;38.03;;;17.73;;
24090;SDS011;12272;52.426;17.100;2023-01-01T18:51:24;21.67;;;11.23;;
24090;SDS011;12272;52.426;17.100;2023-01-01T18:56:27;32.73;;;15.63;;
24090;SDS011;12272;52.426;17.100;2023-01-01T19:01:32;22.53;;;12.93;;
24090;SDS011;12272;52.426;17.100;2023-01-01T19:06:35;19.63;;;11.93;;
24090;SDS011;12272;52.426;17.100;2023-01-01T19:11:37;25.37;;;14.53;;
24090;SDS011;12272;52.426;17.100;2023-01-01T19:16:40;19.80;;;12.10;;
24090;SDS011;12272;52.426;17.100;2023-01-01T19:21:44;20.27;;;13.37;;
24090;SDS011;12272;52.426;17.100;2023-01-01T19:27:01;19.77;;;12.00;;
24090;SDS011;12272;52.426;17.100;2023-01-01T19:32:13;21.20;;;13.97;;
24090;SDS011;12272;52.426;17.100;2023-01-01T19:37:16;26.27;;;15.47;;
24090;SDS011;12272;52.426;17.100;2023-01-01T19:42:18;22.47;;;13.30;;
24090;SDS011;12272;52.426;17.100;2023-01-01T19:47:21;23.83;;;15.97;;
24090;SDS011;12272;52.426;17.100;2023-01-01T19:52:23;30.40;;;17.37;;
24090;SDS011;12272;52.426;17.100;2023-01-01T19:57:26;34.43;;;17.90;;
24090;SDS011;12272;52.426;17.100;2023-01-01T20:02:29;45.50;;;25.80;;
24090;SDS011;12272;52.426;17.100;2023-01-01T20:07:49;61.13;;;31.20;;
24090;SDS011;12272;52.426;17.100;2023-01-01T20:12:52;88.67;;;50.37;;
24090;SDS011;12272;52.426;17.100;2023-01-01T20:17:54;98.13;;;49.90;;
24090;SDS011;12272;52.426;17.100;2023-01-01T20:22:57;49.43;;;27.33;;
24090;SDS011;12272;52.426;17.100;2023-01-01T20:27:59;41.27;;;21.37;;
24090;SDS011;12272;52.426;17.100;2023-01-01T20:33:20;31.77;;;19.53;;
24090;SDS011;12272;52.426;17.100;2023-01-01T20:38:23;27.63;;;16.93;;
24090;SDS011;12272;52.426;17.100;2023-01-01T20:43:25;32.77;;;18.17;;
24090;SDS011;12272;52.426;17.100;2023-01-01T20:48:28;31.03;;;17.27;;
24090;SDS011;12272;52.426;17.100;2023-01-01T20:53:30;32.07;;;17.37;;
24090;SDS011;12272;52.426;17.100;2023-01-01T20:58:33;45.53;;;22.57;;
24090;SDS011;12272;52.426;17.100;2023-01-01T21:03:36;64.03;;;36.17;;
24090;SDS011;12272;52.426;17.100;2023-01-01T21:08:38;62.70;;;34.93;;
24090;SDS011;12272;52.426;17.100;2023-01-01T21:13:44;40.90;;;21.53;;
24090;SDS011;12272;52.426;17.100;2023-01-01T21:18:47;31.93;;;16.90;;
24090;SDS011;12272;52.426;17.100;2023-01-01T21:23:51;41.57;;;20.80;;
24090;SDS011;12272;52.426;17.100;2023-01-01T21:28:58;42.30;;;26.13;;
24090;SDS011;12272;52.426;17.100;2023-01-01T21:34:01;49.97;;;27.27;;
24090;SDS011;12272;52.426;17.100;2023-01-01T21:39:22;60.40;;;31.97;;
24090;SDS011;12272;52.426;17.100;2023-01-01T21:44:29;69.43;;;34.53;;
24090;SDS011;12272;52.426;17.100;2023-01-01T21:49:33;66.90;;;35.77;;
24090;SDS011;12272;52.426;17.100;2023-01-01T21:54:37;61.00;;;35.07;;
24090;SDS011;12272;52.426;17.100;2023-01-01T21:59:44;58.53;;;29.33;;
24090;SDS011;12272;52.426;17.100;2023-01-01T22:04:48;41.50;;;22.53;;
24090;SDS011;12272;52.426;17.100;2023-01-01T22:20:44;28.20;;;15.60;;
24090;SDS011;12272;52.426;17.100;2023-01-01T22:25:48;29.87;;;16.50;;
24090;SDS011;12272;52.426;17.100;2023-01-01T22:30:53;27.23;;;15.97;;
24090;SDS011;12272;52.426;17.100;2023-01-01T22:35:59;26.30;;;14.87;;
24090;SDS011;12272;52.426;17.100;2023-01-01T22:41:02;34.60;;;17.47;;
24090;SDS011;12272;52.426;17.100;2023-01-01T22:46:21;17.17;;;10.23;;
24090;SDS011;12272;52.426;17.100;2023-01-01T22:51:36;11.30;;;7.17;;
24090;SDS011;12272;52.426;17.100;2023-01-01T22:56:48;17.50;;;10.17;;
24090;SDS011;12272;52.426;17.100;2023-01-01T23:02:03;17.27;;;8.97;;
24090;SDS011;12272;52.426;17.100;2023-01-01T23:07:07;15.77;;;10.47;;
24090;SDS011;12272;52.426;17.100;2023-01-01T23:12:15;22.67;;;12.07;;
24090;SDS011;12272;52.426;17.100;2023-01-01T23:17:17;30.73;;;14.83;;
24090;SDS011;12272;52.426;17.100;2023-01-01T23:22:20;20.47;;;12.33;;
24090;SDS011;12272;52.426;17.100;2023-01-01T23:27:23;23.40;;;13.67;;
24090;SDS011;12272;52.426;17.100;2023-01-01T23:32:25;15.23;;;10.47;;
24090;SDS011;12272;52.426;17.100;2023-01-01T23:37:28;23.53;;;9.90;;
24090;SDS011;12272;52.426;17.100;2023-01-01T23:42:31;21.50;;;12.50;;
24090;SDS011;12272;52.426;17.100;2023-01-01T23:47:33;27.90;;;13.97;;
24090;SDS011;12272;52.426;17.100;2023-01-01T23:52:36;20.77;;;10.77;;
24090;SDS011;12272;52.426;17.100;2023-01-01T23:57:39;22.83;;;12.60;;
